sensor_id;sensor_type;location;lat;lon;timestamp;pressure;altitude;pressure_sealevel;temperature;humidity
36014;BME280;22275;43.208;27.620;2023-09-08T00:01:29;101655.66;;;20.01;100.00
36014;BME280;22275;43.208;27.620;2023-09-08T00:03:57;101656.94;;;19.97;100.00
36014;BME280;22275;43.208;27.620;2023-09-08T00:06:24;101649.06;;;19.85;100.00
36014;BME280;22275;43.208;27.620;2023-09-08T00:08:51;101658.19;;;19.82;100.00
36014;BME280;22275;43.208;27.620;2023-09-08T00:11:20;101653.50;;;19.75;100.00
36014;BME280;22275;43.208;27.620;2023-09-08T00:13:47;101652.94;;;19.60;100.00
36014;BME280;22275;43.208;27.620;2023-09-08T00:16:16;101651.44;;;19.67;100.00
36014;BME280;22275;43.208;27.620;2023-09-08T00:18:43;101653.41;;;19.65;100.00
36014;BME280;22275;43.208;27.620;2023-09-08T00:21:10;101656.53;;;19.70;100.00
36014;BME280;22275;43.208;27.620;2023-09-08T00:23:37;101650.94;;;19.73;100.00
36014;BME280;22275;43.208;27.620;2023-09-08T00:26:04;101650.13;;;19.93;100.00
36014;BME280;22275;43.208;27.620;2023-09-08T00:28:33;101642.75;;;20.06;100.00
36014;BME280;22275;43.208;27.620;2023-09-08T00:31:00;101642.56;;;19.98;100.00
36014;BME280;22275;43.208;27.620;2023-09-08T00:33:27;101643.41;;;19.99;100.00
36014;BME280;22275;43.208;27.620;2023-09-08T00:35:56;101652.63;;;20.06;100.00
36014;BME280;22275;43.208;27.620;2023-09-08T00:38:24;101645.56;;;20.05;100.00
36014;BME280;22275;43.208;27.620;2023-09-08T00:41:25;101641.78;;;20.07;100.00
36014;BME280;22275;43.208;27.620;2023-09-08T00:43:53;101645.13;;;20.00;100.00
36014;BME280;22275;43.208;27.620;2023-09-08T00:46:21;101633.31;;;20.02;100.00
36014;BME280;22275;43.208;27.620;2023-09-08T00:48:49;101642.13;;;20.14;100.00
36014;BME280;22275;43.208;27.620;2023-09-08T00:51:16;101634.50;;;20.30;100.00
36014;BME280;22275;43.208;27.620;2023-09-08T00:53:43;101643.91;;;20.25;100.00
36014;BME280;22275;43.208;27.620;2023-09-08T00:56:11;101645.13;;;20.41;100.00
36014;BME280;22275;43.208;27.620;2023-09-08T00:58:39;101649.88;;;20.38;100.00
36014;BME280;22275;43.208;27.620;2023-09-08T01:01:07;101651.50;;;20.50;100.00
36014;BME280;22275;43.208;27.620;2023-09-08T01:03:35;101652.31;;;20.41;100.00
36014;BME280;22275;43.208;27.620;2023-09-08T01:06:02;101647.81;;;20.41;100.00
36014;BME280;22275;43.208;27.620;2023-09-08T01:08:32;101642.41;;;20.32;100.00
36014;BME280;22275;43.208;27.620;2023-09-08T01:10:59;101646.94;;;20.41;100.00
36014;BME280;22275;43.208;27.620;2023-09-08T01:13:27;101633.13;;;20.36;100.00
36014;BME280;22275;43.208;27.620;2023-09-08T01:15:54;101636.22;;;20.31;100.00
36014;BME280;22275;43.208;27.620;2023-09-08T01:18:22;101647.66;;;20.22;100.00
36014;BME280;22275;43.208;27.620;2023-09-08T01:21:09;101648.91;;;20.39;100.00
36014;BME280;22275;43.208;27.620;2023-09-08T01:23:50;101650.28;;;20.54;100.00
36014;BME280;22275;43.208;27.620;2023-09-08T01:26:27;101654.50;;;20.77;100.00
36014;BME280;22275;43.208;27.620;2023-09-08T01:28:57;101650.47;;;21.02;100.00
36014;BME280;22275;43.208;27.620;2023-09-08T01:31:25;101653.94;;;21.13;100.00
36014;BME280;22275;43.208;27.620;2023-09-08T01:33:52;101651.53;;;21.20;100.00
36014;BME280;22275;43.208;27.620;2023-09-08T01:36:20;101652.97;;;21.24;100.00
36014;BME280;22275;43.208;27.620;2023-09-08T01:38:47;101658.06;;;21.27;100.00
36014;BME280;22275;43.208;27.620;2023-09-08T01:41:14;101650.41;;;21.13;100.00
36014;BME280;22275;43.208;27.620;2023-09-08T01:43:43;101640.44;;;21.25;100.00
36014;BME280;22275;43.208;27.620;2023-09-08T01:46:10;101645.06;;;21.13;100.00
36014;BME280;22275;43.208;27.620;2023-09-08T01:48:37;101653.63;;;20.77;100.00
36014;BME280;22275;43.208;27.620;2023-09-08T01:51:04;101642.72;;;20.99;100.00
36014;BME280;22275;43.208;27.620;2023-09-08T01:53:31;101639.84;;;20.51;100.00
36014;BME280;22275;43.208;27.620;2023-09-08T01:55:59;101640.28;;;20.56;100.00
36014;BME280;22275;43.208;27.620;2023-09-08T02:01:44;101653.84;;;20.94;100.00
36014;BME280;22275;43.208;27.620;2023-09-08T02:04:11;101651.25;;;21.13;100.00
36014;BME280;22275;43.208;27.620;2023-09-08T02:06:38;101651.72;;;20.88;100.00
36014;BME280;22275;43.208;27.620;2023-09-08T02:09:05;101652.84;;;20.95;100.00
36014;BME280;22275;43.208;27.620;2023-09-08T02:11:32;101647.84;;;20.72;100.00
36014;BME280;22275;43.208;27.620;2023-09-08T02:14:00;101642.50;;;20.51;100.00
36014;BME280;22275;43.208;27.620;2023-09-08T02:16:27;101644.13;;;20.22;100.00
36014;BME280;22275;43.208;27.620;2023-09-08T02:18:55;101643.78;;;20.15;100.00
36014;BME280;22275;43.208;27.620;2023-09-08T02:21:23;101652.56;;;20.17;100.00
36014;BME280;22275;43.208;27.620;2023-09-08T02:23:50;101643.16;;;20.23;100.00
36014;BME280;22275;43.208;27.620;2023-09-08T02:26:17;101644.00;;;20.23;100.00
36014;BME280;22275;43.208;27.620;2023-09-08T02:28:44;101636.09;;;20.22;100.00
36014;BME280;22275;43.208;27.620;2023-09-08T02:31:13;101642.84;;;20.37;100.00
36014;BME280;22275;43.208;27.620;2023-09-08T02:33:40;101647.06;;;20.19;100.00
36014;BME280;22275;43.208;27.620;2023-09-08T02:36:08;101643.94;;;20.14;100.00
36014;BME280;22275;43.208;27.620;2023-09-08T02:38:36;101637.63;;;20.15;100.00
36014;BME280;22275;43.208;27.620;2023-09-08T02:41:03;101635.13;;;20.02;100.00
36014;BME280;22275;43.208;27.620;2023-09-08T02:43:30;101632.03;;;20.06;100.00
36014;BME280;22275;43.208;27.620;2023-09-08T02:45:57;101629.44;;;19.95;100.00
36014;BME280;22275;43.208;27.620;2023-09-08T02:48:25;101623.19;;;20.06;100.00
36014;BME280;22275;43.208;27.620;2023-09-08T02:50:52;101625.94;;;19.95;100.00
36014;BME280;22275;43.208;27.620;2023-09-08T02:53:23;101615.09;;;19.96;100.00
36014;BME280;22275;43.208;27.620;2023-09-08T02:55:54;101620.06;;;19.80;100.00
36014;BME280;22275;43.208;27.620;2023-09-08T02:58:21;101617.03;;;19.74;100.00
36014;BME280;22275;43.208;27.620;2023-09-08T03:00:49;101621.94;;;19.69;100.00
36014;BME280;22275;43.208;27.620;2023-09-08T03:03:17;101614.44;;;19.83;100.00
36014;BME280;22275;43.208;27.620;2023-09-08T03:05:44;101620.56;;;19.74;100.00
36014;BME280;22275;43.208;27.620;2023-09-08T03:08:12;101617.53;;;19.68;100.00
36014;BME280;22275;43.208;27.620;2023-09-08T03:10:40;101613.50;;;19.73;100.00
36014;BME280;22275;43.208;27.620;2023-09-08T03:13:07;101614.22;;;19.75;100.00
36014;BME280;22275;43.208;27.620;2023-09-08T03:15:35;101608.94;;;19.64;100.00
36014;BME280;22275;43.208;27.620;2023-09-08T03:18:02;101623.19;;;19.54;100.00
36014;BME280;22275;43.208;27.620;2023-09-08T03:20:29;101610.03;;;19.62;100.00
36014;BME280;22275;43.208;27.620;2023-09-08T03:22:56;101607.00;;;19.66;100.00
36014;BME280;22275;43.208;27.620;2023-09-08T03:25:24;101613.19;;;19.67;100.00
36014;BME280;22275;43.208;27.620;2023-09-08T03:27:53;101611.59;;;19.64;100.00
36014;BME280;22275;43.208;27.620;2023-09-08T03:30:20;101612.84;;;19.60;100.00
36014;BME280;22275;43.208;27.620;2023-09-08T03:32:47;101628.44;;;19.55;100.00
36014;BME280;22275;43.208;27.620;2023-09-08T03:35:14;101629.53;;;19.41;100.00
36014;BME280;22275;43.208;27.620;2023-09-08T03:37:41;101628.88;;;19.60;100.00
36014;BME280;22275;43.208;27.620;2023-09-08T03:40:09;101636.91;;;19.60;100.00
36014;BME280;22275;43.208;27.620;2023-09-08T03:42:36;101626.88;;;19.73;100.00
36014;BME280;22275;43.208;27.620;2023-09-08T03:45:06;101630.88;;;19.99;100.00
36014;BME280;22275;43.208;27.620;2023-09-08T03:47:33;101626.59;;;20.08;100.00
36014;BME280;22275;43.208;27.620;2023-09-08T03:50:00;101625.53;;;19.99;100.00
36014;BME280;22275;43.208;27.620;2023-09-08T03:52:28;101631.13;;;20.28;100.00
36014;BME280;22275;43.208;27.620;2023-09-08T03:54:55;101627.19;;;20.32;100.00
36014;BME280;22275;43.208;27.620;2023-09-08T03:57:22;101631.09;;;20.49;100.00
36014;BME280;22275;43.208;27.620;2023-09-08T03:59:49;101627.03;;;20.54;100.00
36014;BME280;22275;43.208;27.620;2023-09-08T04:02:18;101628.69;;;20.46;100.00
36014;BME280;22275;43.208;27.620;2023-09-08T04:04:45;101629.84;;;20.53;100.00
36014;BME280;22275;43.208;27.620;2023-09-08T04:07:12;101641.50;;;20.52;100.00
36014;BME280;22275;43.208;27.620;2023-09-08T04:09:39;101632.34;;;20.45;100.00
36014;BME280;22275;43.208;27.620;2023-09-08T04:12:07;101635.44;;;20.40;100.00
36014;BME280;22275;43.208;27.620;2023-09-08T04:14:36;101633.13;;;20.36;100.00
36014;BME280;22275;43.208;27.620;2023-09-08T04:17:03;101635.28;;;20.42;100.00
36014;BME280;22275;43.208;27.620;2023-09-08T04:19:32;101635.81;;;20.36;100.00
36014;BME280;22275;43.208;27.620;2023-09-08T04:21:59;101647.28;;;20.47;100.00
36014;BME280;22275;43.208;27.620;2023-09-08T04:24:26;101650.88;;;20.57;100.00
36014;BME280;22275;43.208;27.620;2023-09-08T04:26:53;101661.69;;;20.56;100.00
36014;BME280;22275;43.208;27.620;2023-09-08T04:29:20;101653.91;;;20.83;100.00
36014;BME280;22275;43.208;27.620;2023-09-08T04:31:49;101658.88;;;21.08;100.00
36014;BME280;22275;43.208;27.620;2023-09-08T04:34:16;101655.69;;;21.34;100.00
36014;BME280;22275;43.208;27.620;2023-09-08T04:36:45;101664.44;;;21.55;100.00
36014;BME280;22275;43.208;27.620;2023-09-08T04:39:12;101672.81;;;21.61;100.00
36014;BME280;22275;43.208;27.620;2023-09-08T04:41:41;101665.75;;;21.70;100.00
36014;BME280;22275;43.208;27.620;2023-09-08T04:44:08;101658.81;;;21.58;100.00
36014;BME280;22275;43.208;27.620;2023-09-08T04:46:35;101666.81;;;21.29;100.00
36014;BME280;22275;43.208;27.620;2023-09-08T04:49:02;101663.00;;;21.32;100.00
36014;BME280;22275;43.208;27.620;2023-09-08T04:51:29;101665.41;;;21.35;100.00
36014;BME280;22275;43.208;27.620;2023-09-08T04:53:58;101657.69;;;21.51;100.00
36014;BME280;22275;43.208;27.620;2023-09-08T04:56:25;101658.41;;;21.82;100.00
36014;BME280;22275;43.208;27.620;2023-09-08T04:58:52;101662.66;;;22.03;100.00
36014;BME280;22275;43.208;27.620;2023-09-08T05:01:20;101652.63;;;22.05;100.00
36014;BME280;22275;43.208;27.620;2023-09-08T05:03:47;101658.69;;;22.26;100.00
36014;BME280;22275;43.208;27.620;2023-09-08T05:06:15;101652.75;;;22.32;100.00
36014;BME280;22275;43.208;27.620;2023-09-08T05:08:42;101653.03;;;22.29;100.00
36014;BME280;22275;43.208;27.620;2023-09-08T05:11:11;101657.56;;;22.29;100.00
36014;BME280;22275;43.208;27.620;2023-09-08T05:13:38;101647.78;;;22.38;100.00
36014;BME280;22275;43.208;27.620;2023-09-08T05:16:05;101658.81;;;22.34;100.00
36014;BME280;22275;43.208;27.620;2023-09-08T05:18:38;101650.84;;;22.62;100.00
36014;BME280;22275;43.208;27.620;2023-09-08T05:21:06;101648.28;;;22.60;100.00
36014;BME280;22275;43.208;27.620;2023-09-08T05:23:33;101645.72;;;22.78;100.00
36014;BME280;22275;43.208;27.620;2023-09-08T05:26:00;101645.94;;;23.21;100.00
36014;BME280;22275;43.208;27.620;2023-09-08T05:28:29;101640.53;;;23.49;100.00
36014;BME280;22275;43.208;27.620;2023-09-08T05:30:57;101641.31;;;23.76;100.00
36014;BME280;22275;43.208;27.620;2023-09-08T05:33:24;101638.91;;;23.56;100.00
36014;BME280;22275;43.208;27.620;2023-09-08T05:35:51;101644.78;;;23.69;100.00
36014;BME280;22275;43.208;27.620;2023-09-08T05:38:18;101643.78;;;23.70;100.00
36014;BME280;22275;43.208;27.620;2023-09-08T05:40:46;101641.03;;;24.05;100.00
36014;BME280;22275;43.208;27.620;2023-09-08T05:43:13;101640.84;;;24.42;100.00
36014;BME280;22275;43.208;27.620;2023-09-08T05:45:41;101643.00;;;24.38;100.00
36014;BME280;22275;43.208;27.620;2023-09-08T05:48:08;101642.03;;;24.73;100.00
36014;BME280;22275;43.208;27.620;2023-09-08T05:50:36;101637.13;;;24.94;100.00
36014;BME280;22275;43.208;27.620;2023-09-08T05:53:04;101632.94;;;25.00;100.00
36014;BME280;22275;43.208;27.620;2023-09-08T05:55:31;101642.72;;;25.09;100.00
36014;BME280;22275;43.208;27.620;2023-09-08T05:57:58;101635.56;;;25.34;100.00
36014;BME280;22275;43.208;27.620;2023-09-08T06:00:25;101640.25;;;25.24;100.00
36014;BME280;22275;43.208;27.620;2023-09-08T06:02:54;101631.84;;;25.35;100.00
36014;BME280;22275;43.208;27.620;2023-09-08T06:05:21;101642.91;;;25.65;100.00
36014;BME280;22275;43.208;27.620;2023-09-08T06:07:49;101639.50;;;25.63;100.00
36014;BME280;22275;43.208;27.620;2023-09-08T06:10:16;101639.38;;;25.81;100.00
36014;BME280;22275;43.208;27.620;2023-09-08T06:12:43;101645.28;;;26.17;100.00
36014;BME280;22275;43.208;27.620;2023-09-08T06:15:10;101644.59;;;26.07;100.00
36014;BME280;22275;43.208;27.620;2023-09-08T06:17:37;101642.59;;;26.25;100.00
36014;BME280;22275;43.208;27.620;2023-09-08T06:20:07;101638.00;;;26.09;100.00
36014;BME280;22275;43.208;27.620;2023-09-08T06:22:34;101648.00;;;26.17;100.00
36014;BME280;22275;43.208;27.620;2023-09-08T06:25:01;101642.94;;;26.22;100.00
36014;BME280;22275;43.208;27.620;2023-09-08T06:27:29;101653.72;;;26.38;100.00
36014;BME280;22275;43.208;27.620;2023-09-08T06:29:56;101649.16;;;26.22;100.00
36014;BME280;22275;43.208;27.620;2023-09-08T06:32:25;101656.78;;;26.19;100.00
36014;BME280;22275;43.208;27.620;2023-09-08T06:34:52;101655.41;;;26.23;100.00
36014;BME280;22275;43.208;27.620;2023-09-08T06:37:21;101662.16;;;26.43;100.00
36014;BME280;22275;43.208;27.620;2023-09-08T06:39:54;101652.84;;;26.54;100.00
36014;BME280;22275;43.208;27.620;2023-09-08T06:42:22;101654.13;;;26.82;100.00
36014;BME280;22275;43.208;27.620;2023-09-08T06:44:51;101647.34;;;27.25;100.00
36014;BME280;22275;43.208;27.620;2023-09-08T06:47:18;101662.19;;;27.37;100.00
36014;BME280;22275;43.208;27.620;2023-09-08T06:49:45;101644.28;;;27.59;100.00
36014;BME280;22275;43.208;27.620;2023-09-08T06:52:14;101661.03;;;27.62;100.00
36014;BME280;22275;43.208;27.620;2023-09-08T06:54:42;101653.69;;;27.40;100.00
36014;BME280;22275;43.208;27.620;2023-09-08T06:57:11;101647.06;;;27.73;100.00
36014;BME280;22275;43.208;27.620;2023-09-08T06:59:38;101642.38;;;28.13;100.00
36014;BME280;22275;43.208;27.620;2023-09-08T07:02:07;101643.34;;;27.97;100.00
36014;BME280;22275;43.208;27.620;2023-09-08T07:04:34;101632.31;;;27.98;100.00
36014;BME280;22275;43.208;27.620;2023-09-08T07:07:01;101647.84;;;28.42;100.00
36014;BME280;22275;43.208;27.620;2023-09-08T07:09:32;101636.84;;;28.43;100.00
36014;BME280;22275;43.208;27.620;2023-09-08T07:12:01;101639.25;;;28.24;100.00
36014;BME280;22275;43.208;27.620;2023-09-08T07:14:28;101637.81;;;28.65;100.00
36014;BME280;22275;43.208;27.620;2023-09-08T07:16:55;101626.00;;;29.02;100.00
36014;BME280;22275;43.208;27.620;2023-09-08T07:19:22;101648.34;;;28.89;100.00
36014;BME280;22275;43.208;27.620;2023-09-08T07:21:50;101655.91;;;28.50;100.00
36014;BME280;22275;43.208;27.620;2023-09-08T07:24:17;101640.72;;;28.12;100.00
36014;BME280;22275;43.208;27.620;2023-09-08T07:26:44;101642.56;;;28.11;100.00
36014;BME280;22275;43.208;27.620;2023-09-08T07:29:13;101654.34;;;27.73;100.00
36014;BME280;22275;43.208;27.620;2023-09-08T07:31:40;101655.69;;;27.54;100.00
36014;BME280;22275;43.208;27.620;2023-09-08T07:34:07;101656.91;;;27.74;100.00
36014;BME280;22275;43.208;27.620;2023-09-08T07:36:36;101653.03;;;27.91;100.00
36014;BME280;22275;43.208;27.620;2023-09-08T07:39:03;101649.25;;;27.78;100.00
36014;BME280;22275;43.208;27.620;2023-09-08T07:41:31;101669.22;;;27.54;100.00
36014;BME280;22275;43.208;27.620;2023-09-08T07:43:58;101662.34;;;27.44;100.00
36014;BME280;22275;43.208;27.620;2023-09-08T07:46:26;101653.09;;;27.61;100.00
36014;BME280;22275;43.208;27.620;2023-09-08T07:48:53;101671.22;;;27.60;100.00
36014;BME280;22275;43.208;27.620;2023-09-08T07:51:21;101681.75;;;27.55;100.00
36014;BME280;22275;43.208;27.620;2023-09-08T07:53:49;101669.06;;;27.48;100.00
36014;BME280;22275;43.208;27.620;2023-09-08T07:56:16;101696.84;;;27.33;100.00
36014;BME280;22275;43.208;27.620;2023-09-08T07:58:43;101674.25;;;27.26;100.00
36014;BME280;22275;43.208;27.620;2023-09-08T08:01:12;101677.25;;;27.31;100.00
36014;BME280;22275;43.208;27.620;2023-09-08T08:03:40;101684.97;;;27.12;100.00
36014;BME280;22275;43.208;27.620;2023-09-08T08:06:08;101686.94;;;27.26;100.00
36014;BME280;22275;43.208;27.620;2023-09-08T08:08:35;101693.09;;;27.12;100.00
36014;BME280;22275;43.208;27.620;2023-09-08T08:11:09;101692.41;;;27.10;100.00
36014;BME280;22275;43.208;27.620;2023-09-08T08:13:37;101686.00;;;27.03;100.00
36014;BME280;22275;43.208;27.620;2023-09-08T08:16:04;101679.47;;;26.89;100.00
36014;BME280;22275;43.208;27.620;2023-09-08T08:18:31;101673.88;;;26.99;100.00
36014;BME280;22275;43.208;27.620;2023-09-08T08:21:00;101691.16;;;26.81;100.00
36014;BME280;22275;43.208;27.620;2023-09-08T08:23:29;101686.78;;;26.80;100.00
36014;BME280;22275;43.208;27.620;2023-09-08T08:25:56;101685.38;;;26.93;100.00
36014;BME280;22275;43.208;27.620;2023-09-08T08:28:24;101678.84;;;26.63;100.00
36014;BME280;22275;43.208;27.620;2023-09-08T08:30:51;101698.91;;;26.76;100.00
36014;BME280;22275;43.208;27.620;2023-09-08T08:33:18;101701.63;;;26.85;100.00
36014;BME280;22275;43.208;27.620;2023-09-08T08:35:48;101689.59;;;26.95;100.00
36014;BME280;22275;43.208;27.620;2023-09-08T08:38:17;101689.75;;;26.94;100.00
36014;BME280;22275;43.208;27.620;2023-09-08T08:40:45;101683.69;;;26.92;100.00
36014;BME280;22275;43.208;27.620;2023-09-08T08:43:12;101691.13;;;26.90;100.00
36014;BME280;22275;43.208;27.620;2023-09-08T08:45:41;101701.25;;;26.96;100.00
36014;BME280;22275;43.208;27.620;2023-09-08T08:48:10;101696.59;;;27.20;100.00
36014;BME280;22275;43.208;27.620;2023-09-08T08:50:41;101700.47;;;26.79;100.00
36014;BME280;22275;43.208;27.620;2023-09-08T08:53:10;101704.69;;;26.81;100.00
36014;BME280;22275;43.208;27.620;2023-09-08T08:55:40;101702.97;;;26.72;100.00
36014;BME280;22275;43.208;27.620;2023-09-08T08:58:08;101694.16;;;26.95;100.00
36014;BME280;22275;43.208;27.620;2023-09-08T09:00:36;101696.56;;;27.28;100.00
36014;BME280;22275;43.208;27.620;2023-09-08T09:03:05;101692.16;;;27.66;100.00
36014;BME280;22275;43.208;27.620;2023-09-08T09:05:33;101685.69;;;27.67;100.00
36014;BME280;22275;43.208;27.620;2023-09-08T09:08:01;101681.44;;;27.73;100.00
36014;BME280;22275;43.208;27.620;2023-09-08T09:10:30;101682.88;;;27.61;100.00
36014;BME280;22275;43.208;27.620;2023-09-08T09:12:59;101700.50;;;27.57;100.00
36014;BME280;22275;43.208;27.620;2023-09-08T09:15:30;101698.69;;;27.49;100.00
36014;BME280;22275;43.208;27.620;2023-09-08T09:18:05;101687.69;;;27.73;100.00
36014;BME280;22275;43.208;27.620;2023-09-08T09:20:33;101701.75;;;27.46;100.00
36014;BME280;22275;43.208;27.620;2023-09-08T09:23:01;101689.94;;;27.70;100.00
36014;BME280;22275;43.208;27.620;2023-09-08T09:25:30;101698.53;;;27.73;100.00
36014;BME280;22275;43.208;27.620;2023-09-08T09:28:00;101678.63;;;27.89;100.00
36014;BME280;22275;43.208;27.620;2023-09-08T09:30:45;101679.91;;;27.70;100.00
36014;BME280;22275;43.208;27.620;2023-09-08T09:33:12;101675.84;;;27.97;100.00
36014;BME280;22275;43.208;27.620;2023-09-08T09:35:41;101691.22;;;27.51;100.00
36014;BME280;22275;43.208;27.620;2023-09-08T09:38:09;101685.81;;;27.51;100.00
36014;BME280;22275;43.208;27.620;2023-09-08T09:40:37;101682.06;;;27.83;100.00
36014;BME280;22275;43.208;27.620;2023-09-08T09:43:07;101670.06;;;28.23;100.00
36014;BME280;22275;43.208;27.620;2023-09-08T09:45:35;101661.09;;;28.22;100.00
36014;BME280;22275;43.208;27.620;2023-09-08T09:48:03;101655.53;;;27.78;100.00
36014;BME280;22275;43.208;27.620;2023-09-08T09:50:32;101661.28;;;27.75;100.00
36014;BME280;22275;43.208;27.620;2023-09-08T09:53:01;101651.53;;;27.66;100.00
36014;BME280;22275;43.208;27.620;2023-09-08T09:55:29;101651.75;;;28.02;100.00
36014;BME280;22275;43.208;27.620;2023-09-08T09:57:57;101651.06;;;27.63;100.00
36014;BME280;22275;43.208;27.620;2023-09-08T10:00:28;101637.06;;;27.96;100.00
36014;BME280;22275;43.208;27.620;2023-09-08T10:02:57;101642.38;;;28.13;100.00
36014;BME280;22275;43.208;27.620;2023-09-08T10:05:25;101639.28;;;28.16;100.00
36014;BME280;22275;43.208;27.620;2023-09-08T10:07:53;101641.88;;;28.32;100.00
36014;BME280;22275;43.208;27.620;2023-09-08T10:10:21;101635.25;;;28.49;100.00
36014;BME280;22275;43.208;27.620;2023-09-08T10:12:52;101637.00;;;28.42;100.00
36014;BME280;22275;43.208;27.620;2023-09-08T10:15:22;101638.66;;;28.66;100.00
36014;BME280;22275;43.208;27.620;2023-09-08T10:17:54;101623.50;;;28.71;100.00
36014;BME280;22275;43.208;27.620;2023-09-08T10:20:23;101620.75;;;28.57;100.00
36014;BME280;22275;43.208;27.620;2023-09-08T10:22:54;101633.28;;;28.43;100.00
36014;BME280;22275;43.208;27.620;2023-09-08T10:25:24;101632.81;;;28.98;100.00
36014;BME280;22275;43.208;27.620;2023-09-08T10:27:55;101630.41;;;28.88;100.00
36014;BME280;22275;43.208;27.620;2023-09-08T10:30:24;101633.22;;;28.80;100.00
36014;BME280;22275;43.208;27.620;2023-09-08T10:32:53;101633.00;;;28.52;100.00
36014;BME280;22275;43.208;27.620;2023-09-08T10:35:20;101636.16;;;28.41;100.00
36014;BME280;22275;43.208;27.620;2023-09-08T10:37:48;101641.41;;;28.43;100.00
36014;BME280;22275;43.208;27.620;2023-09-08T10:40:22;101637.84;;;28.28;100.00
36014;BME280;22275;43.208;27.620;2023-09-08T10:42:49;101633.44;;;28.27;100.00
36014;BME280;22275;43.208;27.620;2023-09-08T10:45:32;101639.66;;;28.13;100.00
36014;BME280;22275;43.208;27.620;2023-09-08T10:48:01;101625.78;;;28.30;100.00
36014;BME280;22275;43.208;27.620;2023-09-08T10:50:33;101632.69;;;28.33;100.00
36014;BME280;22275;43.208;27.620;2023-09-08T10:53:08;101630.84;;;28.33;100.00
36014;BME280;22275;43.208;27.620;2023-09-08T10:55:40;101621.06;;;28.76;100.00
36014;BME280;22275;43.208;27.620;2023-09-08T10:58:11;101621.22;;;28.89;100.00
36014;BME280;22275;43.208;27.620;2023-09-08T11:00:47;101611.59;;;29.01;100.00
36014;BME280;22275;43.208;27.620;2023-09-08T11:03:26;101608.31;;;29.06;100.00
36014;BME280;22275;43.208;27.620;2023-09-08T11:05:53;101598.13;;;28.93;100.00
36014;BME280;22275;43.208;27.620;2023-09-08T11:08:21;101606.59;;;28.69;100.00
36014;BME280;22275;43.208;27.620;2023-09-08T11:10:49;101615.13;;;28.29;100.00
36014;BME280;22275;43.208;27.620;2023-09-08T11:13:16;101621.50;;;28.36;100.00
36014;BME280;22275;43.208;27.620;2023-09-08T11:15:44;101620.38;;;28.45;100.00
36014;BME280;22275;43.208;27.620;2023-09-08T11:18:11;101621.59;;;29.01;100.00
36014;BME280;22275;43.208;27.620;2023-09-08T11:20:40;101601.16;;;29.34;100.00
36014;BME280;22275;43.208;27.620;2023-09-08T11:23:07;101613.50;;;29.37;100.00
36014;BME280;22275;43.208;27.620;2023-09-08T11:25:34;101614.25;;;29.88;100.00
36014;BME280;22275;43.208;27.620;2023-09-08T11:28:02;101606.78;;;29.54;100.00
36014;BME280;22275;43.208;27.620;2023-09-08T11:30:29;101604.06;;;29.54;100.00
36014;BME280;22275;43.208;27.620;2023-09-08T11:32:56;101596.16;;;29.38;100.00
36014;BME280;22275;43.208;27.620;2023-09-08T11:35:27;101617.25;;;29.57;100.00
36014;BME280;22275;43.208;27.620;2023-09-08T11:38:00;101606.72;;;29.12;100.00
36014;BME280;22275;43.208;27.620;2023-09-08T11:40:30;101609.44;;;29.12;100.00
36014;BME280;22275;43.208;27.620;2023-09-08T11:42:58;101601.72;;;29.15;100.00
36014;BME280;22275;43.208;27.620;2023-09-08T11:45:25;101626.84;;;28.88;100.00
36014;BME280;22275;43.208;27.620;2023-09-08T11:47:53;101614.53;;;28.85;100.00
36014;BME280;22275;43.208;27.620;2023-09-08T11:50:22;101618.91;;;28.57;100.00
36014;BME280;22275;43.208;27.620;2023-09-08T11:52:50;101611.22;;;28.75;100.00
36014;BME280;22275;43.208;27.620;2023-09-08T11:55:21;101607.13;;;28.65;100.00
36014;BME280;22275;43.208;27.620;2023-09-08T11:57:50;101603.41;;;28.80;100.00
36014;BME280;22275;43.208;27.620;2023-09-08T12:00:20;101603.31;;;29.09;100.00
36014;BME280;22275;43.208;27.620;2023-09-08T12:02:49;101606.19;;;28.72;100.00
36014;BME280;22275;43.208;27.620;2023-09-08T12:05:21;101594.22;;;28.81;100.00
36014;BME280;22275;43.208;27.620;2023-09-08T12:07:50;101605.88;;;28.96;100.00
36014;BME280;22275;43.208;27.620;2023-09-08T12:10:17;101582.59;;;28.58;100.00
36014;BME280;22275;43.208;27.620;2023-09-08T12:12:47;101596.81;;;28.31;100.00
36014;BME280;22275;43.208;27.620;2023-09-08T12:15:30;101591.41;;;28.60;100.00
36014;BME280;22275;43.208;27.620;2023-09-08T12:17:59;101593.00;;;28.55;100.00
36014;BME280;22275;43.208;27.620;2023-09-08T12:20:29;101588.88;;;28.59;100.00
36014;BME280;22275;43.208;27.620;2023-09-08T12:22:59;101583.06;;;28.18;100.00
36014;BME280;22275;43.208;27.620;2023-09-08T12:25:27;101579.13;;;28.06;100.00
36014;BME280;22275;43.208;27.620;2023-09-08T12:27:59;101578.31;;;28.20;100.00
36014;BME280;22275;43.208;27.620;2023-09-08T12:30:28;101569.16;;;28.21;100.00
36014;BME280;22275;43.208;27.620;2023-09-08T12:32:59;101566.34;;;28.73;100.00
36014;BME280;22275;43.208;27.620;2023-09-08T12:35:27;101568.31;;;28.79;100.00
36014;BME280;22275;43.208;27.620;2023-09-08T12:37:59;101572.53;;;28.67;100.00
36014;BME280;22275;43.208;27.620;2023-09-08T12:40:26;101561.59;;;28.31;100.00